createdAt,value
2023-02-22T00:02:36.291Z,5.05
2023-02-22T00:05:42.161Z,4.97
2023-02-22T00:08:43.976Z,4.91
2023-02-22T00:11:46.898Z,4.80
2023-02-22T00:14:48.929Z,4.75
2023-02-22T00:17:50.678Z,4.50
2023-02-22T00:20:53.970Z,4.50
2023-02-22T00:23:55.801Z,4.54
2023-02-22T00:26:57.641Z,4.55
2023-02-22T00:29:59.667Z,4.71
2023-02-22T00:33:02.151Z,4.80
2023-02-22T00:36:06.238Z,4.91
2023-02-22T00:39:08.389Z,5.02
2023-02-22T00:42:10.285Z,5.07
2023-02-22T00:45:12.912Z,5.09
2023-02-22T00:48:15.337Z,5.17
2023-02-22T00:51:18.846Z,5.07
2023-02-22T00:54:20.712Z,4.88
2023-02-22T00:57:23.456Z,4.83
2023-02-22T01:00:31.666Z,4.94
2023-02-22T01:03:34.516Z,4.74
2023-02-22T01:06:38.508Z,4.81
2023-02-22T01:09:40.439Z,4.74
2023-02-22T01:12:42.587Z,4.78
2023-02-22T01:15:44.434Z,4.81
2023-02-22T01:18:46.230Z,4.66
2023-02-22T01:21:50.813Z,4.65
2023-02-22T01:24:52.817Z,4.57
2023-02-22T01:27:57.419Z,4.70
2023-02-22T01:31:01.316Z,4.69
2023-02-22T01:34:03.589Z,4.76
2023-02-22T01:37:08.192Z,4.68
2023-02-22T01:40:15.344Z,4.70
2023-02-22T01:43:24.570Z,4.69
2023-02-22T01:46:27.567Z,4.72
2023-02-22T01:49:33.587Z,4.75
2023-02-22T01:52:37.693Z,4.80
2023-02-22T01:55:40.043Z,4.71
2023-02-22T01:58:46.489Z,4.76
2023-02-22T02:01:48.908Z,4.75
2023-02-22T02:04:53.171Z,4.77
2023-02-22T02:07:58.413Z,4.68
2023-02-22T02:11:03.413Z,4.60
2023-02-22T02:14:09.511Z,4.53
2023-02-22T02:17:15.489Z,4.58
2023-02-22T02:20:25.395Z,4.58
2023-02-22T02:23:59.437Z,4.65
2023-02-22T02:27:18.218Z,4.68
2023-02-22T02:30:44.976Z,4.58
2023-02-22T02:33:55.209Z,4.49
2023-02-22T02:37:03.614Z,4.42
2023-02-22T02:40:18.933Z,4.40
2023-02-22T02:43:29.883Z,4.47
2023-02-22T02:46:35.442Z,4.46
2023-02-22T02:49:46.735Z,4.44
2023-02-22T02:52:51.486Z,4.44
2023-02-22T02:55:54.346Z,4.24
2023-02-22T02:58:57.412Z,4.33
2023-02-22T03:02:17.295Z,4.31
2023-02-22T03:05:30.371Z,4.20
2023-02-22T03:08:41.649Z,4.35
2023-02-22T03:11:54.819Z,4.31
2023-02-22T03:15:06.116Z,4.26
2023-02-22T03:18:13.087Z,4.34
2023-02-22T03:21:25.515Z,4.23
2023-02-22T03:24:31.374Z,4.23
2023-02-22T03:27:41.615Z,4.29
2023-02-22T03:30:50.881Z,4.20
2023-02-22T03:33:55.415Z,4.23
2023-02-22T03:37:02.709Z,4.33
2023-02-22T03:40:07.675Z,4.24
2023-02-22T03:43:13.450Z,4.24
2023-02-22T03:46:18.006Z,4.14
2023-02-22T03:49:27.666Z,4.11
2023-02-22T03:52:31.209Z,4.10
2023-02-22T03:55:33.875Z,4.04
2023-02-22T03:58:38.206Z,4.13
2023-02-22T04:01:40.157Z,4.20
2023-02-22T04:04:41.991Z,4.13
2023-02-22T04:07:45.390Z,4.08
2023-02-22T04:10:47.583Z,4.16
2023-02-22T04:13:49.654Z,4.07
2023-02-22T04:16:52.440Z,4.20
2023-02-22T04:19:54.769Z,4.27
2023-02-22T04:22:57.903Z,4.15
2023-02-22T04:25:59.666Z,4.10
2023-02-22T04:29:01.996Z,4.07
2023-02-22T04:32:04.325Z,4.13
2023-02-22T04:35:07.111Z,4.14
2023-02-22T04:38:12.552Z,4.08
2023-02-22T04:41:14.572Z,4.07
2023-02-22T04:44:16.693Z,4.03
2023-02-22T04:47:18.646Z,4.09
2023-02-22T04:50:20.537Z,4.10
2023-02-22T04:53:24.022Z,4.09
2023-02-22T04:56:25.921Z,4.05
2023-02-22T04:59:28.770Z,4.05
2023-02-22T05:02:31.268Z,4.05
2023-02-22T05:05:33.122Z,4.08
2023-02-22T05:08:38.425Z,4.07
2023-02-22T05:11:41.076Z,4.02
2023-02-22T05:14:43.135Z,3.99
2023-02-22T05:17:44.945Z,4.08
2023-02-22T05:20:47.224Z,4.09
2023-02-22T05:23:50.525Z,4.14
2023-02-22T05:26:52.691Z,4.12
2023-02-22T05:29:54.788Z,4.09
2023-02-22T05:32:59.881Z,4.07
2023-02-22T05:36:01.893Z,4.07
2023-02-22T05:39:08.462Z,4.12
2023-02-22T05:42:10.213Z,4.16
2023-02-22T05:45:15.683Z,4.19
2023-02-22T05:48:17.556Z,4.16
2023-02-22T05:51:19.704Z,4.19
2023-02-22T05:54:23.160Z,4.19
2023-02-22T05:57:25.210Z,4.17
2023-02-22T06:00:28.913Z,4.20
2023-02-22T06:03:31.680Z,4.27
2023-02-22T06:06:33.486Z,4.26
2023-02-22T06:09:36.902Z,4.32
2023-02-22T06:12:39.020Z,4.49
2023-02-22T06:15:41.177Z,4.44
2023-02-22T06:18:43.329Z,4.45
2023-02-22T06:21:49.636Z,4.40
2023-02-22T06:24:55.036Z,4.37
2023-02-22T06:27:58.944Z,4.40
2023-02-22T06:31:01.131Z,4.45
2023-02-22T06:34:03.195Z,4.39
2023-02-22T06:37:05.270Z,4.41
2023-02-22T06:40:11.725Z,4.39
2023-02-22T06:43:14.464Z,4.49
2023-02-22T06:46:17.859Z,4.59
2023-02-22T06:49:21.112Z,4.66
2023-02-22T06:52:23.473Z,4.74
2023-02-22T06:55:30.407Z,4.80
2023-02-22T06:58:32.189Z,4.88
2023-02-22T07:01:34.003Z,4.98
2023-02-22T07:04:37.177Z,5.07
2023-02-22T07:07:42.257Z,5.19
2023-02-22T07:10:45.401Z,5.29
2023-02-22T07:13:47.306Z,5.31
2023-02-22T07:16:49.183Z,5.35
2023-02-22T07:19:51.257Z,5.42
2023-02-22T07:22:54.078Z,5.53
2023-02-22T07:26:01.008Z,5.60
2023-02-22T07:29:03.326Z,5.59
2023-02-22T07:32:08.907Z,5.68
2023-02-22T07:35:14.816Z,5.78
2023-02-22T07:38:21.645Z,5.85
2023-02-22T07:41:25.575Z,5.81
2023-02-22T07:44:28.285Z,5.75
2023-02-22T07:47:30.391Z,5.64
2023-02-22T07:50:33.709Z,5.57
2023-02-22T07:53:36.946Z,5.61
2023-02-22T07:56:47.497Z,5.66
2023-02-22T07:59:49.351Z,5.67
2023-02-22T08:02:51.299Z,5.72
2023-02-22T08:05:55.224Z,5.75
2023-02-22T08:08:58.200Z,5.80
2023-02-22T08:12:01.413Z,5.94
2023-02-22T08:15:04.457Z,5.91
2023-02-22T08:18:10.273Z,6.01
2023-02-22T08:21:13.857Z,6.16
2023-02-22T08:24:15.642Z,6.39
2023-02-22T08:27:24.590Z,6.50
2023-02-22T08:30:28.337Z,6.82
2023-02-22T08:33:31.183Z,7.02
2023-02-22T08:36:34.922Z,6.98
2023-02-22T08:39:37.316Z,7.04
2023-02-22T08:42:40.739Z,7.12
2023-02-22T08:45:44.585Z,7.15
2023-02-22T08:48:50.382Z,7.23
2023-02-22T08:51:52.283Z,7.36
2023-02-22T08:54:54.400Z,7.39
2023-02-22T08:57:57.603Z,7.40
2023-02-22T09:00:59.626Z,7.49
2023-02-22T09:04:01.733Z,7.62
2023-02-22T09:07:04.146Z,7.74
2023-02-22T09:10:06.898Z,7.79
2023-02-22T09:13:10.419Z,7.87
2023-02-22T09:16:12.808Z,7.94
2023-02-22T09:19:14.638Z,7.93
2023-02-22T09:22:17.630Z,8.03
2023-02-22T09:25:23.672Z,8.06
2023-02-22T09:28:28.950Z,8.27
2023-02-22T09:31:31.020Z,8.24
2023-02-22T09:34:38.004Z,8.24
2023-02-22T09:37:40.004Z,8.32
2023-02-22T09:40:51.277Z,8.38
2023-02-22T09:44:06.143Z,8.42
2023-02-22T09:47:15.182Z,8.44
2023-02-22T09:50:21.872Z,8.45
2023-02-22T09:53:28.757Z,8.56
2023-02-22T09:56:33.541Z,8.57
2023-02-22T09:59:42.875Z,8.67
2023-02-22T10:02:47.209Z,8.73
2023-02-22T10:05:54.502Z,8.84
2023-02-22T10:09:01.492Z,8.98
2023-02-22T10:12:10.505Z,9.05
2023-02-22T10:15:53.747Z,9.09
2023-02-22T10:19:18.978Z,9.26
2023-02-22T10:22:40.459Z,9.31
2023-02-22T10:25:45.221Z,9.33
2023-02-22T10:28:53.450Z,9.37
2023-02-22T10:32:00.552Z,9.52
2023-02-22T10:35:18.244Z,9.55
2023-02-22T10:38:24.024Z,9.51
2023-02-22T10:41:32.487Z,9.59
2023-02-22T10:44:34.353Z,9.57
2023-02-22T10:47:36.173Z,9.69
2023-02-22T10:50:44.622Z,9.86
2023-02-22T10:53:58.697Z,9.89
2023-02-22T10:57:01.068Z,9.88
2023-02-22T11:00:15.740Z,10.00
2023-02-22T11:03:19.937Z,10.12
2023-02-22T11:06:23.666Z,10.07
2023-02-22T11:09:25.813Z,10.19
2023-02-22T11:12:31.118Z,10.35
2023-02-22T11:15:33.036Z,10.38
2023-02-22T11:18:35.461Z,10.43
2023-02-22T11:21:39.940Z,10.44
2023-02-22T11:24:49.393Z,10.64
2023-02-22T11:27:53.331Z,10.62
2023-02-22T11:30:57.129Z,10.76
2023-02-22T11:34:01.166Z,10.78
2023-02-22T11:37:26.565Z,10.68
2023-02-22T11:40:28.353Z,10.94
2023-02-22T11:43:30.554Z,11.11
2023-02-22T11:46:36.005Z,11.15
2023-02-22T11:49:43.338Z,11.18
2023-02-22T11:52:53.507Z,11.33
2023-02-22T11:56:18.707Z,11.28
2023-02-22T11:59:33.533Z,11.17
2023-02-22T12:03:08.078Z,11.07
2023-02-22T12:06:26.519Z,11.22
2023-02-22T12:09:38.293Z,11.34
2023-02-22T12:13:01.184Z,11.45
2023-02-22T12:16:13.018Z,11.66
2023-02-22T12:19:25.897Z,11.56
2023-02-22T12:22:32.256Z,11.68
2023-02-22T12:25:41.406Z,11.67
2023-02-22T12:28:47.970Z,11.74
2023-02-22T12:31:52.476Z,11.74
2023-02-22T12:34:59.204Z,11.79
2023-02-22T12:38:09.236Z,11.79
2023-02-22T12:41:20.793Z,11.87
2023-02-22T12:44:31.172Z,12.11
2023-02-22T12:47:41.000Z,12.15
2023-02-22T12:50:45.161Z,12.18
2023-02-22T12:53:55.763Z,12.19
2023-02-22T12:57:05.941Z,12.24
2023-02-22T13:00:15.588Z,12.22
2023-02-22T13:03:29.127Z,12.28
2023-02-22T13:06:43.468Z,12.28
2023-02-22T13:09:58.553Z,12.50
2023-02-22T13:13:11.325Z,12.42
2023-02-22T13:16:27.140Z,12.53
2023-02-22T13:19:40.175Z,12.68
2023-02-22T13:22:47.851Z,12.62
2023-02-22T13:25:55.652Z,12.72
2023-02-22T13:29:07.399Z,12.75
2023-02-22T13:32:21.935Z,12.72
2023-02-22T13:35:39.068Z,12.84
2023-02-22T13:39:01.501Z,13.00
2023-02-22T13:42:25.507Z,12.95
2023-02-22T13:45:54.830Z,12.99
2023-02-22T13:49:17.854Z,12.92
2023-02-22T13:52:23.723Z,12.97
2023-02-22T13:55:29.394Z,13.21
2023-02-22T13:58:31.407Z,13.11
2023-02-22T14:01:42.847Z,13.20
2023-02-22T14:04:44.800Z,13.15
2023-02-22T14:07:49.036Z,13.20
2023-02-22T14:10:52.731Z,13.15
2023-02-22T14:14:12.173Z,13.19
2023-02-22T14:17:25.306Z,13.24
2023-02-22T14:20:29.738Z,13.18
2023-02-22T14:23:36.770Z,13.22
2023-02-22T14:26:40.315Z,13.23
2023-02-22T14:29:51.120Z,13.18
2023-02-22T14:32:54.420Z,13.20
2023-02-22T14:35:56.675Z,13.25
2023-02-22T14:39:07.012Z,13.28
2023-02-22T14:42:16.676Z,13.22
2023-02-22T14:45:24.057Z,13.25
2023-02-22T14:48:32.240Z,13.13
2023-02-22T14:51:42.335Z,13.19
2023-02-22T14:54:56.469Z,13.28
2023-02-22T14:58:05.186Z,13.18
2023-02-22T15:01:24.187Z,13.08
2023-02-22T15:04:29.827Z,13.09
2023-02-22T15:07:32.562Z,13.11
2023-02-22T15:10:41.170Z,13.18
2023-02-22T15:13:51.034Z,13.11
2023-02-22T15:16:56.524Z,13.12
2023-02-22T15:20:00.749Z,13.09
2023-02-22T15:23:02.793Z,13.07
2023-02-22T15:26:05.644Z,13.01
2023-02-22T15:29:13.179Z,13.02
2023-02-22T15:32:20.348Z,12.97
2023-02-22T15:35:28.965Z,12.95
2023-02-22T15:38:32.158Z,12.97
2023-02-22T15:41:34.605Z,12.97
2023-02-22T15:44:39.719Z,13.05
2023-02-22T15:47:41.565Z,13.05
2023-02-22T15:54:26.608Z,13.07
2023-02-22T15:57:34.870Z,13.05
2023-02-22T16:00:40.004Z,13.02
2023-02-22T16:03:45.716Z,13.01
2023-02-22T16:06:49.038Z,12.90
2023-02-22T16:09:53.071Z,12.71
2023-02-22T16:13:16.654Z,12.71
2023-02-22T16:16:32.520Z,12.57
2023-02-22T16:19:40.201Z,12.52
2023-02-22T16:22:45.353Z,12.45
2023-02-22T16:26:02.158Z,12.38
2023-02-22T16:29:07.391Z,12.28
2023-02-22T16:32:13.068Z,12.25
2023-02-22T16:35:16.888Z,12.22
2023-02-22T16:38:19.788Z,12.14
2023-02-22T16:41:23.704Z,12.05
2023-02-22T16:44:27.106Z,12.03
2023-02-22T16:47:29.931Z,11.88
2023-02-22T16:50:31.845Z,11.74
2023-02-22T16:53:35.149Z,11.66
2023-02-22T16:56:40.717Z,11.63
2023-02-22T16:59:43.039Z,11.56
2023-02-22T17:02:46.087Z,11.50
2023-02-22T17:05:51.371Z,11.48
2023-02-22T17:08:53.510Z,11.44
2023-02-22T17:11:57.320Z,11.40
2023-02-22T17:14:59.838Z,11.28
2023-02-22T17:18:11.832Z,11.11
2023-02-22T17:21:14.098Z,11.07
2023-02-22T17:24:20.900Z,10.97
2023-02-22T17:27:28.320Z,10.76
2023-02-22T17:30:30.539Z,10.76
2023-02-22T17:33:35.365Z,10.68
2023-02-22T17:36:37.334Z,10.57
2023-02-22T17:39:39.727Z,10.50
2023-02-22T17:42:45.291Z,10.42
2023-02-22T17:45:57.484Z,10.42
2023-02-22T17:49:00.131Z,10.38
2023-02-22T17:52:02.352Z,10.16
2023-02-22T17:55:06.164Z,10.25
2023-02-22T17:58:13.229Z,10.21
2023-02-22T18:01:24.102Z,10.10
2023-02-22T18:04:30.078Z,10.19
2023-02-22T18:07:33.181Z,10.13
2023-02-22T18:10:37.721Z,10.20
2023-02-22T18:13:44.763Z,10.23
2023-02-22T18:16:49.402Z,10.18
2023-02-22T18:19:52.766Z,10.13
2023-02-22T18:23:01.476Z,10.15
2023-02-22T18:26:11.243Z,9.91
2023-02-22T18:29:16.904Z,9.97
2023-02-22T18:32:24.100Z,10.00
2023-02-22T18:35:27.871Z,9.92
2023-02-22T18:38:32.525Z,9.89
2023-02-22T18:41:39.579Z,10.04
2023-02-22T18:44:45.189Z,9.84
2023-02-22T18:47:51.081Z,9.87
2023-02-22T18:50:56.213Z,9.76
2023-02-22T18:53:59.558Z,9.69
2023-02-22T18:57:05.763Z,9.66
2023-02-22T19:00:13.887Z,9.60
2023-02-22T19:03:16.699Z,9.53
2023-02-22T19:06:21.854Z,9.44
2023-02-22T19:09:26.492Z,9.40
2023-02-22T19:12:31.152Z,9.45
2023-02-22T19:15:35.460Z,9.47
2023-02-22T19:18:42.435Z,9.42
2023-02-22T19:21:47.328Z,9.39
2023-02-22T19:24:51.191Z,9.29
2023-02-22T19:27:56.423Z,9.33
2023-02-22T19:31:12.278Z,9.19
2023-02-22T19:34:15.538Z,9.33
2023-02-22T19:37:20.840Z,9.18
2023-02-22T19:40:23.960Z,9.19
2023-02-22T19:43:29.088Z,9.17
2023-02-22T19:46:34.589Z,9.07
2023-02-22T19:49:38.003Z,9.13
2023-02-22T19:52:42.394Z,9.02
2023-02-22T19:55:45.910Z,8.90
2023-02-22T19:58:51.901Z,8.89
2023-02-22T20:01:56.501Z,8.93
2023-02-22T20:05:00.055Z,8.77
2023-02-22T20:08:06.034Z,8.70
2023-02-22T20:11:10.680Z,8.79
2023-02-22T20:14:22.717Z,8.62
2023-02-22T20:17:34.523Z,8.56
2023-02-22T20:20:40.825Z,8.54
2023-02-22T20:23:44.302Z,8.55
2023-02-22T20:26:49.619Z,8.59
2023-02-22T20:29:53.528Z,8.67
2023-02-22T20:32:57.801Z,8.51
2023-02-22T20:36:04.919Z,8.45
2023-02-22T20:39:09.750Z,8.46
2023-02-22T20:42:13.627Z,8.46
2023-02-22T20:45:16.060Z,8.39
2023-02-22T20:48:20.582Z,8.30
2023-02-22T20:51:26.705Z,8.29
2023-02-22T20:54:29.366Z,8.20
2023-02-22T20:57:32.890Z,8.19
2023-02-22T21:00:37.156Z,8.21
2023-02-22T21:03:42.352Z,8.07
2023-02-22T21:06:45.489Z,8.05
2023-02-22T21:09:49.375Z,7.96
2023-02-22T21:12:56.914Z,7.94
2023-02-22T21:16:04.540Z,7.87
2023-02-22T21:19:09.396Z,7.78
2023-02-22T21:22:13.018Z,7.77
2023-02-22T21:25:23.597Z,7.78
2023-02-22T21:28:32.408Z,7.86
2023-02-22T21:31:46.388Z,7.89
2023-02-22T21:34:50.102Z,7.85
2023-02-22T21:37:52.596Z,7.95
2023-02-22T21:40:55.006Z,7.88
2023-02-22T21:43:59.869Z,7.82
2023-02-22T21:47:03.894Z,7.92
2023-02-22T21:50:13.008Z,7.88
2023-02-22T21:53:18.446Z,7.94
2023-02-22T21:56:23.160Z,7.89
2023-02-22T21:59:25.370Z,7.78
2023-02-22T22:02:29.007Z,7.74
2023-02-22T22:05:32.354Z,7.62
2023-02-22T22:08:34.374Z,7.54
2023-02-22T22:11:36.665Z,7.63
2023-02-22T22:14:38.847Z,7.43
2023-02-22T22:17:40.868Z,7.43
2023-02-22T22:20:44.367Z,7.45
2023-02-22T22:23:47.301Z,7.38
2023-02-22T22:26:50.029Z,7.42
2023-02-22T22:29:52.578Z,7.37
2023-02-22T22:32:54.530Z,7.34
2023-02-22T22:35:59.373Z,7.43
2023-02-22T22:39:01.423Z,7.42
2023-02-22T22:42:03.286Z,7.36
2023-02-22T22:45:05.930Z,7.35
2023-02-22T22:48:08.079Z,7.27
2023-02-22T22:51:13.447Z,7.33
2023-02-22T22:54:15.475Z,7.25
2023-02-22T22:57:18.552Z,7.28
2023-02-22T23:00:20.906Z,7.26
2023-02-22T23:03:23.520Z,7.36
2023-02-22T23:06:29.260Z,7.35
2023-02-22T23:09:31.709Z,7.24
2023-02-22T23:12:33.594Z,7.23
2023-02-22T23:15:36.159Z,7.14
2023-02-22T23:18:39.490Z,7.17
2023-02-22T23:21:43.237Z,6.99
2023-02-22T23:24:45.060Z,6.97
2023-02-22T23:27:47.956Z,6.94
2023-02-22T23:30:49.750Z,7.03
2023-02-22T23:33:52.499Z,6.73
2023-02-22T23:36:56.145Z,6.65
2023-02-22T23:40:00.551Z,6.73
2023-02-22T23:43:03.480Z,6.50
2023-02-22T23:46:06.689Z,6.51
2023-02-22T23:49:08.600Z,6.51
2023-02-22T23:52:11.796Z,6.30
2023-02-22T23:55:13.878Z,6.35
2023-02-22T23:58:16.159Z,6.26
